sensor_id;sensor_type;location;lat;lon;timestamp;P1;durP1;ratioP1;P2;durP2;ratioP2
44981;SDS011;30716;41.740;-70.400;2023-06-14T00:01:07;1.70;;;1.10;;
44981;SDS011;30716;41.740;-70.400;2023-06-14T00:03:34;1.40;;;1.00;;
44981;SDS011;30716;41.740;-70.400;2023-06-14T00:06:00;1.50;;;1.10;;
44981;SDS011;30716;41.740;-70.400;2023-06-14T00:08:27;1.92;;;1.15;;
44981;SDS011;30716;41.740;-70.400;2023-06-14T00:10:53;1.63;;;1.20;;
44981;SDS011;30716;41.740;-70.400;2023-06-14T00:13:19;1.90;;;1.30;;
44981;SDS011;30716;41.740;-70.400;2023-06-14T00:15:45;1.50;;;1.10;;
44981;SDS011;30716;41.740;-70.400;2023-06-14T00:18:12;2.05;;;1.15;;
44981;SDS011;30716;41.740;-70.400;2023-06-14T00:20:40;1.50;;;1.00;;
44981;SDS011;30716;41.740;-70.400;2023-06-14T00:23:07;1.38;;;1.02;;
44981;SDS011;30716;41.740;-70.400;2023-06-14T00:25:33;2.08;;;1.50;;
44981;SDS011;30716;41.740;-70.400;2023-06-14T00:27:59;1.25;;;0.85;;
44981;SDS011;30716;41.740;-70.400;2023-06-14T00:30:26;1.23;;;1.10;;
44981;SDS011;30716;41.740;-70.400;2023-06-14T00:32:55;1.25;;;0.82;;
44981;SDS011;30716;41.740;-70.400;2023-06-14T00:35:23;1.80;;;1.10;;
44981;SDS011;30716;41.740;-70.400;2023-06-14T00:37:49;1.42;;;1.00;;
44981;SDS011;30716;41.740;-70.400;2023-06-14T00:40:15;1.13;;;0.93;;
44981;SDS011;30716;41.740;-70.400;2023-06-14T00:42:41;1.60;;;1.08;;
44981;SDS011;30716;41.740;-70.400;2023-06-14T00:45:09;1.33;;;0.98;;
44981;SDS011;30716;41.740;-70.400;2023-06-14T00:47:35;1.50;;;1.10;;
44981;SDS011;30716;41.740;-70.400;2023-06-14T00:50:06;1.50;;;0.93;;
44981;SDS011;30716;41.740;-70.400;2023-06-14T00:52:33;1.30;;;0.90;;
44981;SDS011;30716;41.740;-70.400;2023-06-14T00:54:59;1.35;;;0.93;;
44981;SDS011;30716;41.740;-70.400;2023-06-14T00:57:26;1.45;;;0.85;;
44981;SDS011;30716;41.740;-70.400;2023-06-14T00:59:54;1.42;;;0.73;;
44981;SDS011;30716;41.740;-70.400;2023-06-14T01:02:21;1.77;;;1.27;;
44981;SDS011;30716;41.740;-70.400;2023-06-14T01:04:48;3.22;;;1.10;;
44981;SDS011;30716;41.740;-70.400;2023-06-14T01:13:06;1.25;;;0.85;;
44981;SDS011;30716;41.740;-70.400;2023-06-14T01:15:40;1.27;;;0.90;;
44981;SDS011;30716;41.740;-70.400;2023-06-14T01:18:09;1.60;;;0.88;;
44981;SDS011;30716;41.740;-70.400;2023-06-14T01:20:43;1.85;;;1.15;;
44981;SDS011;30716;41.740;-70.400;2023-06-14T01:23:10;1.65;;;1.25;;
44981;SDS011;30716;41.740;-70.400;2023-06-14T01:25:56;1.45;;;0.82;;
44981;SDS011;30716;41.740;-70.400;2023-06-14T01:28:23;1.73;;;1.20;;
44981;SDS011;30716;41.740;-70.400;2023-06-14T01:31:00;1.58;;;1.10;;
44981;SDS011;30716;41.740;-70.400;2023-06-14T01:33:33;0.88;;;0.73;;
44981;SDS011;30716;41.740;-70.400;2023-06-14T01:36:02;1.73;;;1.05;;
44981;SDS011;30716;41.740;-70.400;2023-06-14T01:38:30;1.30;;;0.88;;
44981;SDS011;30716;41.740;-70.400;2023-06-14T01:40:58;1.80;;;1.10;;
44981;SDS011;30716;41.740;-70.400;2023-06-14T01:43:27;1.27;;;1.00;;
44981;SDS011;30716;41.740;-70.400;2023-06-14T01:45:57;1.08;;;0.75;;
44981;SDS011;30716;41.740;-70.400;2023-06-14T01:48:26;1.33;;;0.82;;
44981;SDS011;30716;41.740;-70.400;2023-06-14T01:50:52;1.42;;;0.80;;
44981;SDS011;30716;41.740;-70.400;2023-06-14T01:53:19;1.83;;;1.15;;
44981;SDS011;30716;41.740;-70.400;2023-06-14T01:55:47;1.23;;;1.00;;
44981;SDS011;30716;41.740;-70.400;2023-06-14T01:58:14;1.23;;;0.82;;
44981;SDS011;30716;41.740;-70.400;2023-06-14T02:00:45;1.40;;;0.80;;
44981;SDS011;30716;41.740;-70.400;2023-06-14T02:03:15;1.90;;;1.02;;
44981;SDS011;30716;41.740;-70.400;2023-06-14T02:05:41;1.23;;;0.90;;
44981;SDS011;30716;41.740;-70.400;2023-06-14T02:08:08;1.00;;;0.65;;
44981;SDS011;30716;41.740;-70.400;2023-06-14T02:10:35;1.27;;;0.82;;
44981;SDS011;30716;41.740;-70.400;2023-06-14T02:13:02;1.10;;;0.70;;
44981;SDS011;30716;41.740;-70.400;2023-06-14T02:15:28;1.15;;;0.90;;
44981;SDS011;30716;41.740;-70.400;2023-06-14T02:17:59;1.58;;;1.02;;
44981;SDS011;30716;41.740;-70.400;2023-06-14T02:20:28;1.52;;;0.90;;
44981;SDS011;30716;41.740;-70.400;2023-06-14T02:22:55;1.10;;;0.80;;
44981;SDS011;30716;41.740;-70.400;2023-06-14T02:25:22;1.25;;;0.80;;
44981;SDS011;30716;41.740;-70.400;2023-06-14T02:27:51;1.13;;;0.80;;
44981;SDS011;30716;41.740;-70.400;2023-06-14T02:30:18;1.27;;;0.77;;
44981;SDS011;30716;41.740;-70.400;2023-06-14T02:32:44;1.15;;;0.70;;
44981;SDS011;30716;41.740;-70.400;2023-06-14T02:35:14;1.48;;;0.82;;
44981;SDS011;30716;41.740;-70.400;2023-06-14T02:37:40;1.30;;;0.73;;
44981;SDS011;30716;41.740;-70.400;2023-06-14T02:40:08;1.10;;;0.80;;
44981;SDS011;30716;41.740;-70.400;2023-06-14T02:42:34;1.23;;;0.80;;
44981;SDS011;30716;41.740;-70.400;2023-06-14T02:45:01;1.45;;;0.95;;
44981;SDS011;30716;41.740;-70.400;2023-06-14T02:47:29;1.50;;;1.00;;
44981;SDS011;30716;41.740;-70.400;2023-06-14T02:49:56;1.60;;;0.85;;
44981;SDS011;30716;41.740;-70.400;2023-06-14T02:52:22;1.30;;;0.90;;
44981;SDS011;30716;41.740;-70.400;2023-06-14T02:54:50;1.48;;;0.90;;
44981;SDS011;30716;41.740;-70.400;2023-06-14T02:57:17;1.17;;;0.90;;
44981;SDS011;30716;41.740;-70.400;2023-06-14T02:59:44;0.98;;;0.60;;
44981;SDS011;30716;41.740;-70.400;2023-06-14T03:02:10;1.05;;;0.75;;
44981;SDS011;30716;41.740;-70.400;2023-06-14T03:04:37;1.67;;;1.00;;
44981;SDS011;30716;41.740;-70.400;2023-06-14T03:07:03;1.00;;;0.90;;
44981;SDS011;30716;41.740;-70.400;2023-06-14T03:09:37;1.02;;;0.82;;
44981;SDS011;30716;41.740;-70.400;2023-06-14T03:12:04;1.10;;;0.73;;
44981;SDS011;30716;41.740;-70.400;2023-06-14T03:14:35;1.13;;;0.70;;
44981;SDS011;30716;41.740;-70.400;2023-06-14T03:17:02;2.00;;;0.85;;
44981;SDS011;30716;41.740;-70.400;2023-06-14T03:19:29;1.27;;;0.80;;
44981;SDS011;30716;41.740;-70.400;2023-06-14T03:21:56;1.27;;;0.80;;
44981;SDS011;30716;41.740;-70.400;2023-06-14T03:24:23;1.20;;;0.60;;
44981;SDS011;30716;41.740;-70.400;2023-06-14T03:26:52;1.13;;;0.70;;
44981;SDS011;30716;41.740;-70.400;2023-06-14T03:29:19;2.80;;;0.90;;
44981;SDS011;30716;41.740;-70.400;2023-06-14T03:31:58;1.17;;;0.65;;
44981;SDS011;30716;41.740;-70.400;2023-06-14T03:34:26;1.02;;;0.63;;
44981;SDS011;30716;41.740;-70.400;2023-06-14T03:36:53;1.20;;;0.98;;
44981;SDS011;30716;41.740;-70.400;2023-06-14T03:39:20;1.20;;;0.63;;
44981;SDS011;30716;41.740;-70.400;2023-06-14T03:41:47;1.30;;;0.70;;
44981;SDS011;30716;41.740;-70.400;2023-06-14T03:44:17;0.90;;;0.50;;
44981;SDS011;30716;41.740;-70.400;2023-06-14T03:46:44;1.27;;;0.70;;
44981;SDS011;30716;41.740;-70.400;2023-06-14T03:49:11;1.40;;;1.10;;
44981;SDS011;30716;41.740;-70.400;2023-06-14T03:51:38;1.35;;;0.73;;
44981;SDS011;30716;41.740;-70.400;2023-06-14T03:54:05;1.45;;;0.95;;
44981;SDS011;30716;41.740;-70.400;2023-06-14T03:56:32;1.42;;;0.90;;
44981;SDS011;30716;41.740;-70.400;2023-06-14T03:58:58;1.00;;;0.57;;
44981;SDS011;30716;41.740;-70.400;2023-06-14T04:01:24;0.70;;;0.65;;
44981;SDS011;30716;41.740;-70.400;2023-06-14T04:03:55;1.10;;;0.80;;
44981;SDS011;30716;41.740;-70.400;2023-06-14T04:06:22;0.88;;;0.60;;
44981;SDS011;30716;41.740;-70.400;2023-06-14T04:08:50;1.10;;;0.68;;
44981;SDS011;30716;41.740;-70.400;2023-06-14T04:11:17;1.33;;;0.73;;
44981;SDS011;30716;41.740;-70.400;2023-06-14T04:13:44;0.75;;;0.57;;
44981;SDS011;30716;41.740;-70.400;2023-06-14T04:16:10;1.08;;;0.80;;
44981;SDS011;30716;41.740;-70.400;2023-06-14T04:18:36;1.10;;;0.80;;
44981;SDS011;30716;41.740;-70.400;2023-06-14T04:21:02;1.63;;;0.88;;
44981;SDS011;30716;41.740;-70.400;2023-06-14T04:23:29;1.25;;;0.75;;
44981;SDS011;30716;41.740;-70.400;2023-06-14T04:25:56;1.38;;;1.00;;
44981;SDS011;30716;41.740;-70.400;2023-06-14T04:28:27;0.90;;;0.70;;
44981;SDS011;30716;41.740;-70.400;2023-06-14T04:30:53;1.23;;;0.75;;
44981;SDS011;30716;41.740;-70.400;2023-06-14T04:33:20;0.88;;;0.60;;
44981;SDS011;30716;41.740;-70.400;2023-06-14T04:35:46;1.10;;;0.60;;
44981;SDS011;30716;41.740;-70.400;2023-06-14T04:38:13;1.80;;;0.93;;
44981;SDS011;30716;41.740;-70.400;2023-06-14T04:40:41;1.08;;;0.60;;
44981;SDS011;30716;41.740;-70.400;2023-06-14T04:43:11;0.70;;;0.60;;
44981;SDS011;30716;41.740;-70.400;2023-06-14T04:45:37;1.25;;;0.70;;
44981;SDS011;30716;41.740;-70.400;2023-06-14T04:48:05;1.10;;;0.80;;
44981;SDS011;30716;41.740;-70.400;2023-06-14T04:50:32;1.35;;;0.70;;
44981;SDS011;30716;41.740;-70.400;2023-06-14T04:52:58;1.20;;;0.75;;
44981;SDS011;30716;41.740;-70.400;2023-06-14T04:55:25;1.88;;;0.70;;
44981;SDS011;30716;41.740;-70.400;2023-06-14T04:57:51;1.88;;;0.88;;
44981;SDS011;30716;41.740;-70.400;2023-06-14T05:00:20;1.00;;;0.80;;
44981;SDS011;30716;41.740;-70.400;2023-06-14T05:02:48;1.35;;;0.88;;
44981;SDS011;30716;41.740;-70.400;2023-06-14T05:05:18;0.73;;;0.52;;
44981;SDS011;30716;41.740;-70.400;2023-06-14T05:07:45;1.25;;;0.80;;
44981;SDS011;30716;41.740;-70.400;2023-06-14T05:10:11;1.58;;;0.63;;
44981;SDS011;30716;41.740;-70.400;2023-06-14T05:12:37;1.33;;;0.60;;
44981;SDS011;30716;41.740;-70.400;2023-06-14T05:15:04;1.42;;;0.90;;
44981;SDS011;30716;41.740;-70.400;2023-06-14T05:17:30;1.55;;;0.73;;
44981;SDS011;30716;41.740;-70.400;2023-06-14T05:19:56;0.70;;;0.50;;
44981;SDS011;30716;41.740;-70.400;2023-06-14T05:22:23;0.82;;;0.50;;
44981;SDS011;30716;41.740;-70.400;2023-06-14T05:24:49;1.65;;;1.15;;
44981;SDS011;30716;41.740;-70.400;2023-06-14T05:27:16;0.75;;;0.50;;
44981;SDS011;30716;41.740;-70.400;2023-06-14T05:29:42;1.17;;;0.57;;
44981;SDS011;30716;41.740;-70.400;2023-06-14T05:32:09;1.17;;;0.73;;
44981;SDS011;30716;41.740;-70.400;2023-06-14T05:34:36;0.70;;;0.63;;
44981;SDS011;30716;41.740;-70.400;2023-06-14T05:37:03;1.30;;;0.70;;
44981;SDS011;30716;41.740;-70.400;2023-06-14T05:39:29;1.17;;;0.70;;
44981;SDS011;30716;41.740;-70.400;2023-06-14T05:41:55;1.40;;;0.85;;
44981;SDS011;30716;41.740;-70.400;2023-06-14T05:44:22;0.90;;;0.60;;
44981;SDS011;30716;41.740;-70.400;2023-06-14T05:46:48;1.75;;;0.50;;
44981;SDS011;30716;41.740;-70.400;2023-06-14T05:49:14;0.70;;;0.50;;
44981;SDS011;30716;41.740;-70.400;2023-06-14T05:51:40;1.27;;;0.70;;
44981;SDS011;30716;41.740;-70.400;2023-06-14T05:54:06;1.85;;;0.93;;
44981;SDS011;30716;41.740;-70.400;2023-06-14T05:56:32;1.05;;;0.65;;
44981;SDS011;30716;41.740;-70.400;2023-06-14T05:59:00;0.90;;;0.77;;
44981;SDS011;30716;41.740;-70.400;2023-06-14T06:01:26;1.17;;;0.70;;
44981;SDS011;30716;41.740;-70.400;2023-06-14T06:03:53;1.27;;;0.80;;
44981;SDS011;30716;41.740;-70.400;2023-06-14T06:06:19;1.65;;;0.75;;
44981;SDS011;30716;41.740;-70.400;2023-06-14T06:08:45;1.40;;;0.70;;
44981;SDS011;30716;41.740;-70.400;2023-06-14T06:11:11;2.17;;;1.15;;
44981;SDS011;30716;41.740;-70.400;2023-06-14T06:13:38;1.33;;;0.70;;
44981;SDS011;30716;41.740;-70.400;2023-06-14T06:16:04;1.45;;;0.95;;
44981;SDS011;30716;41.740;-70.400;2023-06-14T06:18:30;1.77;;;1.00;;
44981;SDS011;30716;41.740;-70.400;2023-06-14T06:20:57;1.40;;;0.80;;
44981;SDS011;30716;41.740;-70.400;2023-06-14T06:23:23;1.45;;;0.85;;
44981;SDS011;30716;41.740;-70.400;2023-06-14T06:25:49;1.27;;;0.80;;
44981;SDS011;30716;41.740;-70.400;2023-06-14T06:28:15;2.15;;;1.02;;
44981;SDS011;30716;41.740;-70.400;2023-06-14T06:30:42;1.38;;;0.88;;
44981;SDS011;30716;41.740;-70.400;2023-06-14T06:33:08;1.38;;;0.77;;
44981;SDS011;30716;41.740;-70.400;2023-06-14T06:35:34;1.48;;;0.95;;
44981;SDS011;30716;41.740;-70.400;2023-06-14T06:38:01;1.17;;;0.77;;
44981;SDS011;30716;41.740;-70.400;2023-06-14T06:40:27;1.42;;;0.80;;
44981;SDS011;30716;41.740;-70.400;2023-06-14T06:42:54;1.40;;;0.90;;
44981;SDS011;30716;41.740;-70.400;2023-06-14T06:45:20;1.05;;;0.70;;
44981;SDS011;30716;41.740;-70.400;2023-06-14T06:47:46;2.15;;;1.50;;
44981;SDS011;30716;41.740;-70.400;2023-06-14T06:50:12;1.10;;;0.90;;
44981;SDS011;30716;41.740;-70.400;2023-06-14T06:52:40;1.63;;;0.80;;
44981;SDS011;30716;41.740;-70.400;2023-06-14T06:55:06;1.80;;;1.10;;
44981;SDS011;30716;41.740;-70.400;2023-06-14T06:57:34;1.30;;;0.70;;
44981;SDS011;30716;41.740;-70.400;2023-06-14T07:00:00;1.17;;;1.00;;
44981;SDS011;30716;41.740;-70.400;2023-06-14T07:02:26;1.25;;;0.82;;
44981;SDS011;30716;41.740;-70.400;2023-06-14T07:04:53;1.15;;;0.80;;
44981;SDS011;30716;41.740;-70.400;2023-06-14T07:07:19;1.67;;;0.95;;
44981;SDS011;30716;41.740;-70.400;2023-06-14T07:09:46;1.42;;;1.02;;
44981;SDS011;30716;41.740;-70.400;2023-06-14T07:12:12;2.38;;;1.58;;
44981;SDS011;30716;41.740;-70.400;2023-06-14T07:14:38;1.70;;;1.10;;
44981;SDS011;30716;41.740;-70.400;2023-06-14T07:17:04;1.65;;;1.02;;
44981;SDS011;30716;41.740;-70.400;2023-06-14T07:19:34;1.42;;;1.02;;
44981;SDS011;30716;41.740;-70.400;2023-06-14T07:22:00;2.13;;;0.95;;
44981;SDS011;30716;41.740;-70.400;2023-06-14T07:24:26;1.75;;;1.10;;
44981;SDS011;30716;41.740;-70.400;2023-06-14T07:26:53;2.10;;;1.27;;
44981;SDS011;30716;41.740;-70.400;2023-06-14T07:29:21;1.58;;;1.25;;
44981;SDS011;30716;41.740;-70.400;2023-06-14T07:31:47;1.60;;;1.17;;
44981;SDS011;30716;41.740;-70.400;2023-06-14T07:34:14;1.50;;;1.13;;
44981;SDS011;30716;41.740;-70.400;2023-06-14T07:36:40;2.28;;;1.38;;
44981;SDS011;30716;41.740;-70.400;2023-06-14T07:39:06;1.50;;;1.10;;
44981;SDS011;30716;41.740;-70.400;2023-06-14T07:41:32;1.55;;;0.93;;
44981;SDS011;30716;41.740;-70.400;2023-06-14T07:43:58;1.83;;;1.25;;
44981;SDS011;30716;41.740;-70.400;2023-06-14T07:46:26;1.67;;;1.35;;
44981;SDS011;30716;41.740;-70.400;2023-06-14T07:48:52;1.75;;;1.23;;
44981;SDS011;30716;41.740;-70.400;2023-06-14T07:51:18;1.63;;;1.23;;
44981;SDS011;30716;41.740;-70.400;2023-06-14T07:53:45;2.10;;;1.25;;
44981;SDS011;30716;41.740;-70.400;2023-06-14T07:56:11;2.50;;;1.42;;
44981;SDS011;30716;41.740;-70.400;2023-06-14T07:58:37;1.73;;;1.20;;
44981;SDS011;30716;41.740;-70.400;2023-06-14T08:01:04;2.67;;;1.38;;
44981;SDS011;30716;41.740;-70.400;2023-06-14T08:03:32;1.98;;;1.40;;
44981;SDS011;30716;41.740;-70.400;2023-06-14T08:05:58;2.05;;;1.40;;
44981;SDS011;30716;41.740;-70.400;2023-06-14T08:08:26;1.83;;;1.10;;
44981;SDS011;30716;41.740;-70.400;2023-06-14T08:10:52;2.22;;;1.33;;
44981;SDS011;30716;41.740;-70.400;2023-06-14T08:13:18;2.22;;;1.50;;
44981;SDS011;30716;41.740;-70.400;2023-06-14T08:15:44;2.22;;;1.63;;
44981;SDS011;30716;41.740;-70.400;2023-06-14T08:18:11;2.15;;;1.40;;
44981;SDS011;30716;41.740;-70.400;2023-06-14T08:20:37;2.38;;;1.48;;
44981;SDS011;30716;41.740;-70.400;2023-06-14T08:23:05;1.60;;;1.10;;
44981;SDS011;30716;41.740;-70.400;2023-06-14T08:25:32;1.92;;;1.27;;
44981;SDS011;30716;41.740;-70.400;2023-06-14T08:27:58;2.13;;;1.35;;
44981;SDS011;30716;41.740;-70.400;2023-06-14T08:30:25;2.20;;;1.48;;
44981;SDS011;30716;41.740;-70.400;2023-06-14T08:32:51;1.88;;;1.33;;
44981;SDS011;30716;41.740;-70.400;2023-06-14T08:35:20;2.03;;;1.55;;
44981;SDS011;30716;41.740;-70.400;2023-06-14T08:37:47;1.83;;;1.15;;
44981;SDS011;30716;41.740;-70.400;2023-06-14T08:42:50;2.60;;;1.40;;
44981;SDS011;30716;41.740;-70.400;2023-06-14T08:45:22;2.30;;;1.65;;
44981;SDS011;30716;41.740;-70.400;2023-06-14T08:47:52;3.25;;;1.92;;
44981;SDS011;30716;41.740;-70.400;2023-06-14T08:50:23;1.90;;;1.20;;
44981;SDS011;30716;41.740;-70.400;2023-06-14T08:52:57;1.90;;;1.17;;
44981;SDS011;30716;41.740;-70.400;2023-06-14T08:55:28;2.28;;;1.42;;
44981;SDS011;30716;41.740;-70.400;2023-06-14T08:57:55;2.75;;;1.70;;
44981;SDS011;30716;41.740;-70.400;2023-06-14T09:00:25;2.28;;;1.58;;
44981;SDS011;30716;41.740;-70.400;2023-06-14T09:02:53;2.60;;;1.35;;
44981;SDS011;30716;41.740;-70.400;2023-06-14T09:05:26;2.25;;;1.60;;
44981;SDS011;30716;41.740;-70.400;2023-06-14T09:07:53;2.38;;;1.42;;
44981;SDS011;30716;41.740;-70.400;2023-06-14T09:10:21;2.80;;;1.50;;
44981;SDS011;30716;41.740;-70.400;2023-06-14T09:12:48;2.70;;;1.83;;
44981;SDS011;30716;41.740;-70.400;2023-06-14T09:15:14;2.00;;;1.50;;
44981;SDS011;30716;41.740;-70.400;2023-06-14T09:17:42;2.42;;;1.60;;
44981;SDS011;30716;41.740;-70.400;2023-06-14T09:20:08;3.13;;;2.35;;
44981;SDS011;30716;41.740;-70.400;2023-06-14T09:22:37;2.05;;;1.35;;
44981;SDS011;30716;41.740;-70.400;2023-06-14T09:25:04;2.53;;;1.70;;
44981;SDS011;30716;41.740;-70.400;2023-06-14T09:27:30;2.45;;;1.48;;
44981;SDS011;30716;41.740;-70.400;2023-06-14T09:29:57;2.95;;;1.88;;
44981;SDS011;30716;41.740;-70.400;2023-06-14T09:32:24;2.35;;;1.50;;
44981;SDS011;30716;41.740;-70.400;2023-06-14T09:34:51;2.25;;;1.75;;
44981;SDS011;30716;41.740;-70.400;2023-06-14T09:37:30;2.42;;;1.70;;
44981;SDS011;30716;41.740;-70.400;2023-06-14T09:39:57;2.40;;;1.42;;
44981;SDS011;30716;41.740;-70.400;2023-06-14T09:42:25;2.55;;;2.03;;
44981;SDS011;30716;41.740;-70.400;2023-06-14T09:44:53;3.17;;;1.73;;
44981;SDS011;30716;41.740;-70.400;2023-06-14T09:47:21;3.10;;;2.00;;
44981;SDS011;30716;41.740;-70.400;2023-06-14T09:49:48;3.83;;;1.48;;
44981;SDS011;30716;41.740;-70.400;2023-06-14T09:52:16;2.15;;;1.40;;
44981;SDS011;30716;41.740;-70.400;2023-06-14T09:54:44;2.40;;;1.40;;
44981;SDS011;30716;41.740;-70.400;2023-06-14T09:57:15;2.28;;;1.60;;
44981;SDS011;30716;41.740;-70.400;2023-06-14T09:59:46;2.10;;;1.38;;
44981;SDS011;30716;41.740;-70.400;2023-06-14T10:04:46;3.33;;;2.10;;
44981;SDS011;30716;41.740;-70.400;2023-06-14T10:07:18;2.03;;;1.50;;
44981;SDS011;30716;41.740;-70.400;2023-06-14T10:09:46;2.55;;;1.60;;
44981;SDS011;30716;41.740;-70.400;2023-06-14T10:12:17;2.40;;;1.67;;
44981;SDS011;30716;41.740;-70.400;2023-06-14T10:14:50;2.42;;;1.67;;
44981;SDS011;30716;41.740;-70.400;2023-06-14T10:17:25;1.92;;;1.30;;
44981;SDS011;30716;41.740;-70.400;2023-06-14T10:23:10;2.30;;;1.52;;
44981;SDS011;30716;41.740;-70.400;2023-06-14T10:25:44;2.22;;;1.60;;
44981;SDS011;30716;41.740;-70.400;2023-06-14T10:28:17;2.58;;;1.52;;
44981;SDS011;30716;41.740;-70.400;2023-06-14T10:33:33;2.90;;;2.00;;
44981;SDS011;30716;41.740;-70.400;2023-06-14T10:36:10;2.15;;;1.58;;
44981;SDS011;30716;41.740;-70.400;2023-06-14T10:39:15;2.78;;;1.63;;
44981;SDS011;30716;41.740;-70.400;2023-06-14T10:41:50;2.72;;;1.75;;
44981;SDS011;30716;41.740;-70.400;2023-06-14T10:46:46;2.75;;;1.70;;
44981;SDS011;30716;41.740;-70.400;2023-06-14T10:49:16;2.75;;;1.98;;
44981;SDS011;30716;41.740;-70.400;2023-06-14T10:51:49;3.25;;;2.08;;
44981;SDS011;30716;41.740;-70.400;2023-06-14T10:54:17;3.08;;;2.05;;
44981;SDS011;30716;41.740;-70.400;2023-06-14T10:56:50;2.55;;;1.65;;
44981;SDS011;30716;41.740;-70.400;2023-06-14T10:59:20;2.42;;;1.70;;
44981;SDS011;30716;41.740;-70.400;2023-06-14T11:01:57;1.70;;;1.50;;
44981;SDS011;30716;41.740;-70.400;2023-06-14T11:10:16;1.98;;;1.42;;
44981;SDS011;30716;41.740;-70.400;2023-06-14T11:13:02;2.65;;;1.75;;
44981;SDS011;30716;41.740;-70.400;2023-06-14T11:15:28;4.18;;;1.83;;
44981;SDS011;30716;41.740;-70.400;2023-06-14T11:17:56;2.28;;;1.58;;
44981;SDS011;30716;41.740;-70.400;2023-06-14T11:20:26;2.22;;;1.60;;
44981;SDS011;30716;41.740;-70.400;2023-06-14T11:22:53;3.25;;;1.67;;
44981;SDS011;30716;41.740;-70.400;2023-06-14T11:25:20;2.10;;;1.50;;
44981;SDS011;30716;41.740;-70.400;2023-06-14T11:27:49;2.78;;;1.75;;
44981;SDS011;30716;41.740;-70.400;2023-06-14T11:30:15;2.75;;;1.80;;
44981;SDS011;30716;41.740;-70.400;2023-06-14T11:32:42;2.13;;;1.40;;
44981;SDS011;30716;41.740;-70.400;2023-06-14T11:35:12;2.33;;;1.48;;
44981;SDS011;30716;41.740;-70.400;2023-06-14T11:37:39;2.80;;;1.60;;
44981;SDS011;30716;41.740;-70.400;2023-06-14T11:40:08;2.50;;;1.77;;
44981;SDS011;30716;41.740;-70.400;2023-06-14T11:42:35;2.22;;;1.70;;
44981;SDS011;30716;41.740;-70.400;2023-06-14T11:45:02;1.85;;;1.45;;
44981;SDS011;30716;41.740;-70.400;2023-06-14T11:47:33;2.80;;;2.10;;
44981;SDS011;30716;41.740;-70.400;2023-06-14T11:49:59;2.75;;;1.80;;
44981;SDS011;30716;41.740;-70.400;2023-06-14T11:52:26;3.05;;;1.52;;
44981;SDS011;30716;41.740;-70.400;2023-06-14T11:54:52;1.98;;;1.40;;
44981;SDS011;30716;41.740;-70.400;2023-06-14T11:57:19;2.22;;;1.52;;
44981;SDS011;30716;41.740;-70.400;2023-06-14T11:59:46;2.00;;;1.30;;
44981;SDS011;30716;41.740;-70.400;2023-06-14T12:02:15;2.38;;;1.30;;
44981;SDS011;30716;41.740;-70.400;2023-06-14T12:07:16;1.85;;;1.20;;
44981;SDS011;30716;41.740;-70.400;2023-06-14T12:12:24;2.03;;;1.40;;
44981;SDS011;30716;41.740;-70.400;2023-06-14T12:14:52;2.20;;;1.27;;
44981;SDS011;30716;41.740;-70.400;2023-06-14T12:17:21;2.00;;;1.35;;
44981;SDS011;30716;41.740;-70.400;2023-06-14T12:19:48;2.10;;;1.40;;
44981;SDS011;30716;41.740;-70.400;2023-06-14T12:22:15;2.42;;;1.40;;
44981;SDS011;30716;41.740;-70.400;2023-06-14T12:24:42;1.92;;;1.20;;
44981;SDS011;30716;41.740;-70.400;2023-06-14T12:27:09;2.10;;;1.38;;
44981;SDS011;30716;41.740;-70.400;2023-06-14T12:29:40;1.95;;;1.30;;
44981;SDS011;30716;41.740;-70.400;2023-06-14T12:32:10;1.77;;;1.20;;
44981;SDS011;30716;41.740;-70.400;2023-06-14T12:34:38;2.03;;;1.20;;
44981;SDS011;30716;41.740;-70.400;2023-06-14T12:37:04;2.35;;;1.40;;
44981;SDS011;30716;41.740;-70.400;2023-06-14T12:39:31;1.60;;;1.10;;
44981;SDS011;30716;41.740;-70.400;2023-06-14T12:41:59;2.08;;;1.27;;
44981;SDS011;30716;41.740;-70.400;2023-06-14T12:44:25;1.88;;;1.33;;
44981;SDS011;30716;41.740;-70.400;2023-06-14T12:46:51;2.53;;;1.70;;
44981;SDS011;30716;41.740;-70.400;2023-06-14T12:49:19;2.28;;;1.30;;
44981;SDS011;30716;41.740;-70.400;2023-06-14T12:51:46;1.70;;;1.20;;
44981;SDS011;30716;41.740;-70.400;2023-06-14T12:54:12;1.65;;;1.30;;
44981;SDS011;30716;41.740;-70.400;2023-06-14T12:56:39;2.03;;;1.27;;
44981;SDS011;30716;41.740;-70.400;2023-06-14T12:59:08;2.45;;;1.38;;
44981;SDS011;30716;41.740;-70.400;2023-06-14T13:01:34;1.42;;;1.20;;
44981;SDS011;30716;41.740;-70.400;2023-06-14T13:04:00;2.33;;;1.25;;
44981;SDS011;30716;41.740;-70.400;2023-06-14T13:06:26;2.28;;;1.30;;
44981;SDS011;30716;41.740;-70.400;2023-06-14T13:08:54;1.85;;;1.40;;
44981;SDS011;30716;41.740;-70.400;2023-06-14T13:11:22;2.08;;;1.27;;
44981;SDS011;30716;41.740;-70.400;2023-06-14T13:13:49;2.65;;;1.60;;
44981;SDS011;30716;41.740;-70.400;2023-06-14T13:16:15;1.95;;;1.27;;
44981;SDS011;30716;41.740;-70.400;2023-06-14T13:18:41;1.90;;;1.23;;
44981;SDS011;30716;41.740;-70.400;2023-06-14T13:21:07;2.38;;;1.38;;
44981;SDS011;30716;41.740;-70.400;2023-06-14T13:23:33;1.95;;;1.13;;
44981;SDS011;30716;41.740;-70.400;2023-06-14T13:25:59;2.30;;;1.42;;
44981;SDS011;30716;41.740;-70.400;2023-06-14T13:28:26;2.03;;;1.33;;
44981;SDS011;30716;41.740;-70.400;2023-06-14T13:30:52;2.20;;;1.40;;
44981;SDS011;30716;41.740;-70.400;2023-06-14T13:33:18;1.80;;;1.27;;
44981;SDS011;30716;41.740;-70.400;2023-06-14T13:35:44;1.83;;;1.25;;
44981;SDS011;30716;41.740;-70.400;2023-06-14T13:38:11;1.70;;;1.20;;
44981;SDS011;30716;41.740;-70.400;2023-06-14T13:40:37;2.35;;;1.50;;
44981;SDS011;30716;41.740;-70.400;2023-06-14T13:43:03;1.48;;;1.10;;
44981;SDS011;30716;41.740;-70.400;2023-06-14T13:45:29;1.92;;;1.05;;
44981;SDS011;30716;41.740;-70.400;2023-06-14T13:47:59;1.52;;;1.15;;
44981;SDS011;30716;41.740;-70.400;2023-06-14T13:50:27;2.28;;;1.35;;
44981;SDS011;30716;41.740;-70.400;2023-06-14T13:52:53;1.90;;;1.50;;
44981;SDS011;30716;41.740;-70.400;2023-06-14T13:55:19;1.30;;;0.88;;
44981;SDS011;30716;41.740;-70.400;2023-06-14T13:57:45;1.85;;;1.20;;
44981;SDS011;30716;41.740;-70.400;2023-06-14T14:00:12;1.50;;;1.00;;
44981;SDS011;30716;41.740;-70.400;2023-06-14T14:02:38;2.00;;;1.20;;
44981;SDS011;30716;41.740;-70.400;2023-06-14T14:05:06;2.72;;;1.20;;
44981;SDS011;30716;41.740;-70.400;2023-06-14T14:07:33;2.33;;;1.30;;
44981;SDS011;30716;41.740;-70.400;2023-06-14T14:10:01;1.80;;;1.20;;
44981;SDS011;30716;41.740;-70.400;2023-06-14T14:12:28;2.55;;;1.52;;
44981;SDS011;30716;41.740;-70.400;2023-06-14T14:14:54;2.35;;;1.60;;
44981;SDS011;30716;41.740;-70.400;2023-06-14T14:17:20;2.10;;;1.40;;
44981;SDS011;30716;41.740;-70.400;2023-06-14T14:19:46;1.70;;;1.30;;
44981;SDS011;30716;41.740;-70.400;2023-06-14T14:22:13;1.67;;;1.15;;
44981;SDS011;30716;41.740;-70.400;2023-06-14T14:24:39;2.03;;;1.20;;
44981;SDS011;30716;41.740;-70.400;2023-06-14T14:27:05;1.60;;;1.13;;
44981;SDS011;30716;41.740;-70.400;2023-06-14T14:29:33;2.25;;;1.45;;
44981;SDS011;30716;41.740;-70.400;2023-06-14T14:31:59;2.33;;;1.30;;
44981;SDS011;30716;41.740;-70.400;2023-06-14T14:34:25;1.83;;;1.15;;
44981;SDS011;30716;41.740;-70.400;2023-06-14T14:36:53;2.95;;;1.30;;
44981;SDS011;30716;41.740;-70.400;2023-06-14T14:39:19;2.20;;;1.27;;
44981;SDS011;30716;41.740;-70.400;2023-06-14T14:41:45;1.90;;;1.20;;
44981;SDS011;30716;41.740;-70.400;2023-06-14T14:44:12;2.30;;;1.20;;
44981;SDS011;30716;41.740;-70.400;2023-06-14T14:46:38;1.77;;;1.20;;
44981;SDS011;30716;41.740;-70.400;2023-06-14T14:49:04;1.77;;;1.15;;
44981;SDS011;30716;41.740;-70.400;2023-06-14T14:51:30;1.55;;;1.20;;
44981;SDS011;30716;41.740;-70.400;2023-06-14T14:53:56;2.55;;;1.50;;